Time;durP1;ratioP1;P1;durP2;ratioP2;P2;SDS_P1;SDS_P2;PMS_P1;PMS_P2;Temp;Humidity;BMP_temperature;BMP_pressure;BME280_temperature;BME280_humidity;BME280_pressure;Samples;Min_cycle;Max_cycle;Signal;HPM_P1;HPM_P2
2021/04/15 00:00:21;;;;;;;12.90;4.50;;;-0.70;99.90;;;;;;4995795;28;20145;-88
2021/04/15 00:02:47;;;;;;;7.35;4.30;;;-0.70;99.90;;;;;;4994787;28;20070;-88
2021/04/15 00:05:24;;;;;;;7.78;4.40;;;-0.70;99.90;;;;;;4995078;28;20078;-87
2021/04/15 00:07:50;;;;;;;6.10;4.18;;;-0.70;99.90;;;;;;4994996;28;20054;-89
2021/04/15 00:10:17;;;;;;;6.30;4.25;;;-0.70;99.90;;;;;;4995061;28;20141;-88
2021/04/15 00:12:43;;;;;;;11.27;4.85;;;-0.70;99.90;;;;;;4995034;28;20113;-88
2021/04/15 00:15:12;;;;;;;7.43;4.40;;;-0.70;99.90;;;;;;4994825;28;20129;-87
2021/04/15 00:17:38;;;;;;;5.90;4.60;;;-0.70;99.90;;;;;;4995628;28;20141;-88
2021/04/15 00:20:06;;;;;;;8.25;4.78;;;-0.70;99.90;;;;;;4995657;28;20046;-88
2021/04/15 00:22:33;;;;;;;7.25;3.97;;;-0.80;99.90;;;;;;4994502;28;20153;-87
2021/04/15 00:25:00;;;;;;;6.53;4.13;;;-0.70;99.90;;;;;;4994711;28;20137;-88
2021/04/15 00:27:26;;;;;;;8.70;4.75;;;-0.70;99.90;;;;;;4995391;28;20141;-88
2021/04/15 00:29:53;;;;;;;9.50;4.50;;;-0.60;99.90;;;;;;4995488;28;20136;-88
2021/04/15 00:32:19;;;;;;;6.68;4.18;;;-0.60;99.90;;;;;;4995430;28;20133;-88
2021/04/15 00:34:45;;;;;;;6.40;4.13;;;-0.60;99.90;;;;;;4994820;28;20105;-88
2021/04/15 00:37:15;;;;;;;11.85;4.57;;;-0.60;99.90;;;;;;4994976;28;20058;-88
2021/04/15 00:39:41;;;;;;;12.02;5.20;;;-0.60;99.90;;;;;;4994565;28;20460;-87
2021/04/15 00:42:08;;;;;;;10.38;4.15;;;-0.60;99.90;;;;;;4995409;28;20051;-87
2021/04/15 00:44:34;;;;;;;7.13;4.13;;;-0.60;99.90;;;;;;4996056;28;20089;-87
2021/04/15 00:47:08;;;;;;;5.47;4.38;;;-0.70;99.90;;;;;;4998005;28;20137;-88
2021/04/15 00:49:38;;;;;;;;;;;-0.70;99.90;;;;;;4995173;28;20137;-87
2021/04/15 00:52:10;;;;;;;11.25;4.30;;;-0.70;99.90;;;;;;4994326;28;20331;-88
2021/04/15 00:54:51;;;;;;;6.50;4.18;;;-0.70;99.90;;;;;;4994257;28;20088;-88
2021/04/15 00:57:27;;;;;;;8.82;4.60;;;-0.80;99.90;;;;;;4988500;28;20050;-88
2021/04/15 00:59:54;;;;;;;6.05;4.18;;;-0.90;99.90;;;;;;4994033;28;20054;-88
2021/04/15 01:02:23;;;;;;;5.78;4.40;;;-1.00;99.90;;;;;;4994185;28;20081;-89
2021/04/15 01:04:52;;;;;;;6.75;3.92;;;-1.00;99.90;;;;;;4993976;28;20042;-88
2021/04/15 01:07:19;;;;;;;7.25;4.60;;;-1.00;99.90;;;;;;4994059;28;20064;-88
2021/04/15 01:09:47;;;;;;;7.70;4.55;;;-0.90;99.90;;;;;;4994220;28;20149;-88
2021/04/15 01:12:26;;;;;;;7.50;4.20;;;-1.00;99.90;;;;;;4994017;28;20566;-88
2021/04/15 01:15:02;;;;;;;5.95;3.70;;;-1.00;99.90;;;;;;4994362;28;20551;-88
2021/04/15 01:17:39;;;;;;;7.30;4.00;;;-1.00;99.90;;;;;;4993914;28;20086;-88
2021/04/15 01:20:26;;;;;;;6.53;4.05;;;-1.00;99.90;;;;;;4993981;28;20054;-88
2021/04/15 01:23:13;;;;;;;5.75;3.70;;;-1.00;99.90;;;;;;4993871;28;20137;-88
2021/04/15 01:25:57;;;;;;;8.13;4.50;;;-1.00;99.90;;;;;;4994912;28;20069;-88
2021/04/15 01:28:25;;;;;;;7.15;4.13;;;-1.00;99.90;;;;;;4993888;28;20057;-88
2021/04/15 01:31:15;;;;;;;7.10;4.28;;;-1.00;99.90;;;;;;4994091;28;20054;-88
2021/04/15 01:33:53;;;;;;;6.03;3.65;;;-0.90;99.90;;;;;;4993723;28;20057;-88
2021/04/15 01:36:33;;;;;;;6.55;4.38;;;-0.90;99.90;;;;;;4994604;28;20085;-88
2021/04/15 01:39:16;;;;;;;6.93;3.97;;;-0.90;99.90;;;;;;4993773;28;20093;-87
2021/04/15 01:41:53;;;;;;;6.43;4.47;;;-0.90;99.90;;;;;;4993300;28;20069;-88
2021/04/15 01:44:31;;;;;;;6.88;4.13;;;-1.00;99.90;;;;;;4993481;28;20146;-88
2021/04/15 01:47:03;;;;;;;9.75;4.38;;;-1.10;99.90;;;;;;4993310;28;20201;-88
2021/04/15 01:49:34;;;;;;;5.95;3.92;;;-1.20;99.90;;;;;;4994516;28;20050;-88
2021/04/15 01:52:01;;;;;;;6.70;4.65;;;-1.30;99.90;;;;;;4993418;28;20206;-88
2021/04/15 01:54:57;;;;;;;8.40;4.25;;;-1.30;99.90;;;;;;4993414;28;20141;-88
2021/04/15 01:57:26;;;;;;;8.73;4.63;;;-1.40;99.90;;;;;;4993262;28;20422;-88
2021/04/15 02:00:02;;;;;;;10.07;4.57;;;-1.50;99.90;;;;;;4993331;28;20094;-88
2021/04/15 02:02:33;;;;;;;5.63;4.53;;;-1.50;99.90;;;;;;4994120;28;20073;-88
2021/04/15 02:05:05;;;;;;;10.40;4.72;;;-1.60;99.90;;;;;;4994427;28;20050;-88
2021/04/15 02:07:35;;;;;;;7.82;5.30;;;-1.60;99.90;;;;;;4993158;28;20080;-88
2021/04/15 02:10:05;;;;;;;9.60;4.82;;;-1.60;99.90;;;;;;4993311;28;20485;-88
2021/04/15 02:12:36;;;;;;;17.88;6.00;;;-1.50;99.90;;;;;;4993126;28;20059;-88
2021/04/15 02:15:11;;;;;;;10.95;5.50;;;-1.50;99.90;;;;;;4993463;28;20487;-88
2021/04/15 02:17:40;;;;;;;9.85;5.25;;;-1.50;99.90;;;;;;4993066;28;20046;-88
2021/04/15 02:20:18;;;;;;;8.45;5.25;;;-1.40;99.90;;;;;;4994272;28;20054;-88
2021/04/15 02:23:01;;;;;;;6.03;5.35;;;-1.30;99.90;;;;;;4994484;28;20050;-88
2021/04/15 02:25:35;;;;;;;12.75;5.10;;;-1.30;99.90;;;;;;4993235;28;20050;-88
2021/04/15 02:28:02;;;;;;;14.43;5.40;;;-1.20;99.90;;;;;;4992993;28;20133;-87
2021/04/15 02:30:33;;;;;;;15.18;5.25;;;-1.10;99.90;;;;;;4993089;28;20089;-88
2021/04/15 02:33:19;;;;;;;9.32;4.97;;;-1.10;99.90;;;;;;4993341;28;20110;-91
2021/04/15 02:35:49;;;;;;;7.55;5.43;;;-1.10;99.90;;;;;;4993102;28;20120;-88
2021/04/15 02:38:20;;;;;;;15.30;4.80;;;-1.10;99.90;;;;;;4993121;28;20081;-88
2021/04/15 02:40:58;;;;;;;8.63;4.70;;;-1.10;99.90;;;;;;4992938;28;20140;-88
2021/04/15 02:43:43;;;;;;;6.30;4.38;;;-1.00;99.90;;;;;;4993107;28;20054;-88
2021/04/15 02:46:21;;;;;;;4.97;4.28;;;-1.10;99.90;;;;;;4992892;28;20050;-88
2021/04/15 02:48:50;;;;;;;12.98;4.75;;;-1.10;99.90;;;;;;4992759;28;20046;-88
2021/04/15 02:51:26;;;;;;;15.23;5.72;;;-1.10;99.90;;;;;;4993714;28;20051;-88
2021/04/15 02:54:03;;;;;;;9.45;4.43;;;-1.10;99.90;;;;;;4994584;28;20078;-88
2021/04/15 02:56:42;;;;;;;14.75;5.05;;;-1.20;99.90;;;;;;4997662;28;20050;-89
2021/04/15 02:59:18;;;;;;;10.63;5.13;;;-1.10;99.90;;;;;;4996701;28;20063;-88
2021/04/15 03:01:50;;;;;;;9.38;4.80;;;-1.30;99.90;;;;;;4996133;28;20086;-88
2021/04/15 03:04:20;;;;;;;5.60;4.28;;;-1.30;99.90;;;;;;4996488;28;20472;-88
2021/04/15 03:06:49;;;;;;;6.07;4.55;;;-1.30;99.90;;;;;;4996465;28;20068;-88
2021/04/15 03:09:18;;;;;;;7.50;4.72;;;-1.50;99.90;;;;;;4997258;28;20133;-88
2021/04/15 03:12:00;;;;;;;9.02;5.13;;;-1.50;99.90;;;;;;4996254;28;20566;-88
2021/04/15 03:14:31;;;;;;;7.53;4.90;;;-1.50;99.90;;;;;;4996318;28;20065;-88
2021/04/15 03:17:05;;;;;;;10.45;4.47;;;-1.50;99.90;;;;;;4997093;28;20267;-88
2021/04/15 03:19:36;;;;;;;7.20;5.07;;;-1.50;99.90;;;;;;4997138;28;20046;-88
2021/04/15 03:22:20;;;;;;;12.40;4.63;;;-1.50;99.90;;;;;;4996449;28;20136;-88
2021/04/15 03:24:50;;;;;;;11.65;5.88;;;-1.50;99.90;;;;;;4996961;28;20129;-88
2021/04/15 03:27:38;;;;;;;9.05;5.18;;;-1.50;99.90;;;;;;4997027;28;20134;-88
2021/04/15 03:30:28;;;;;;;8.27;5.20;;;-1.50;99.90;;;;;;4997486;28;20456;-88
2021/04/15 03:33:20;;;;;;;7.78;4.60;;;-1.60;99.90;;;;;;4995699;28;20054;-87
2021/04/15 03:36:11;;;;;;;5.75;5.05;;;-1.60;99.90;;;;;;4997073;28;20483;-88
2021/04/15 03:38:44;;;;;;;12.25;5.50;;;-1.50;99.90;;;;;;4995618;28;20058;-88
2021/04/15 03:41:16;;;;;;;8.82;6.03;;;-1.50;99.90;;;;;;4995809;28;20081;-88
2021/04/15 03:43:55;;;;;;;7.87;5.33;;;-1.50;99.90;;;;;;4995783;28;20106;-88
2021/04/15 03:46:35;;;;;;;7.05;5.05;;;-1.40;99.90;;;;;;4996349;28;20050;-88
2021/04/15 03:49:17;;;;;;;7.15;5.40;;;-1.50;99.90;;;;;;4995899;28;20074;-88
2021/04/15 03:51:48;;;;;;;7.50;5.88;;;-1.40;99.90;;;;;;4995390;28;20058;-88
2021/04/15 03:54:22;;;;;;;9.00;5.30;;;-1.40;99.90;;;;;;4995441;28;20578;-88
2021/04/15 03:56:56;;;;;;;9.23;5.88;;;-1.40;99.90;;;;;;4995898;28;20145;-88
2021/04/15 04:00:11;;;;;;;17.67;6.50;;;-1.30;99.90;;;;;;4997828;28;20562;-89
2021/04/15 04:02:55;;;;;;;13.25;6.50;;;-1.30;99.90;;;;;;4957195;28;20078;-88
2021/04/15 04:05:32;;;;;;;16.95;5.97;;;-1.30;99.90;;;;;;4942154;29;20053;-88
2021/04/15 04:08:05;;;;;;;12.23;5.75;;;-1.30;99.90;;;;;;4981616;28;20050;-87
2021/04/15 04:10:39;;;;;;;8.85;5.90;;;-1.30;99.90;;;;;;4996259;28;20092;-88
2021/04/15 04:13:29;;;;;;;9.75;6.95;;;-1.20;99.90;;;;;;4996577;28;20100;-88
2021/04/15 04:16:04;;;;;;;6.97;5.68;;;-1.30;99.90;;;;;;4998659;28;20454;-89
2021/04/15 04:18:56;;;;;;;8.70;5.57;;;-1.30;99.90;;;;;;4995086;28;20137;-88
2021/04/15 04:21:47;;;;;;;7.57;5.47;;;-1.40;99.90;;;;;;4996221;28;20054;-88
2021/04/15 04:24:27;;;;;;;7.28;5.47;;;-1.40;99.90;;;;;;4995022;28;20046;-89
2021/04/15 04:27:16;;;;;;;7.10;5.28;;;-1.40;99.90;;;;;;4994822;28;20057;-88
2021/04/15 04:29:55;;;;;;;20.17;7.07;;;-1.40;99.90;;;;;;4992450;28;20089;-89
2021/04/15 04:32:24;;;;;;;8.40;5.78;;;-1.40;99.90;;;;;;4995032;28;20475;-88
2021/04/15 04:35:03;;;;;;;13.38;5.72;;;-1.40;99.90;;;;;;4994695;28;20042;-89
2021/04/15 04:37:42;;;;;;;14.00;6.13;;;-1.40;99.90;;;;;;4994384;28;20054;-88
2021/04/15 04:40:31;;;;;;;11.13;5.78;;;-1.30;99.90;;;;;;4994657;28;20137;-88
2021/04/15 04:43:11;;;;;;;10.88;6.28;;;-1.30;99.90;;;;;;4995114;28;20058;-89
2021/04/15 04:45:38;;;;;;;9.95;6.32;;;-1.30;99.90;;;;;;4990648;28;20054;-88
2021/04/15 04:48:23;;;;;;;9.23;5.85;;;-1.30;99.90;;;;;;4995055;28;20150;-89
2021/04/15 04:50:55;;;;;;;14.63;6.97;;;-1.20;99.90;;;;;;4995973;28;20141;-89
2021/04/15 04:53:26;;;;;;;11.80;7.03;;;-1.10;99.90;;;;;;4994267;28;20495;-89
2021/04/15 04:56:08;;;;;;;12.15;6.47;;;-1.10;99.90;;;;;;4994147;28;20054;-87
2021/04/15 04:58:37;;;;;;;15.93;7.25;;;-1.00;99.90;;;;;;4995136;28;20462;-89
2021/04/15 05:01:06;;;;;;;13.18;6.72;;;-0.90;99.90;;;;;;4995232;28;20089;-89
2021/04/15 05:03:33;;;;;;;14.10;6.95;;;-0.80;99.90;;;;;;4994269;28;20133;-87
2021/04/15 05:06:11;;;;;;;15.73;6.95;;;-0.80;99.90;;;;;;4993821;28;20061;-89
2021/04/15 05:08:51;;;;;;;16.90;7.18;;;-0.70;99.90;;;;;;4994192;28;20050;-89
2021/04/15 05:11:18;;;;;;;11.20;6.55;;;-0.60;99.90;;;;;;4998899;28;20275;-89
2021/04/15 05:13:45;;;;;;;12.55;7.20;;;-0.60;99.90;;;;;;5002493;28;20133;-89
2021/04/15 05:16:12;;;;;;;17.45;6.90;;;-0.40;99.90;;;;;;5013282;28;20092;-89
2021/04/15 05:18:39;;;;;;;18.55;5.85;;;-0.30;99.90;;;;;;5013480;28;20072;-89
2021/04/15 05:21:13;;;;;;;10.18;6.45;;;-0.20;99.90;;;;;;5013417;28;20050;-89
2021/04/15 05:23:51;;;;;;;17.15;5.57;;;-0.10;99.90;;;;;;5013776;28;20080;-88
2021/04/15 05:26:27;;;;;;;11.18;5.80;;;0.10;99.90;;;;;;5013870;28;20081;-88
2021/04/15 05:28:57;;;;;;;19.90;6.10;;;0.20;99.90;;;;;;5013976;28;20065;-88
2021/04/15 05:31:27;;;;;;;9.65;4.78;;;0.20;99.90;;;;;;5014209;28;20376;-88
2021/04/15 05:33:56;;;;;;;9.65;4.80;;;0.20;99.90;;;;;;5014377;28;20144;-88
2021/04/15 05:36:31;;;;;;;21.63;5.75;;;0.30;99.90;;;;;;5013445;28;20140;-88
2021/04/15 05:39:01;;;;;;;16.67;5.45;;;0.40;99.90;;;;;;5013717;28;20123;-88
2021/04/15 05:41:48;;;;;;;16.73;5.45;;;0.40;99.90;;;;;;5013028;28;20100;-88
2021/04/15 05:44:21;;;;;;;10.15;5.65;;;0.50;99.90;;;;;;5014038;28;20054;-88
2021/04/15 05:46:51;;;;;;;7.88;5.05;;;0.50;99.90;;;;;;5014160;28;20077;-88
2021/04/15 05:49:25;;;;;;;7.65;4.68;;;0.60;99.90;;;;;;5014240;28;20077;-88
2021/04/15 05:52:22;;;;;;;9.60;4.90;;;0.60;99.90;;;;;;5004791;28;20092;-88
2021/04/15 05:54:50;;;;;;;16.38;7.30;;;0.70;99.90;;;;;;4993425;28;20047;-88
2021/04/15 05:57:23;;;;;;;11.70;5.68;;;0.90;99.90;;;;;;4993517;28;20050;-87
2021/04/15 06:00:16;;;;;;;6.65;4.30;;;1.00;99.90;;;;;;4994601;28;20482;-88
2021/04/15 06:03:18;;;;;;;13.57;4.60;;;1.10;99.90;;;;;;4994350;28;20089;-87
2021/04/15 06:05:59;;;;;;;10.57;5.07;;;1.20;99.90;;;;;;4972490;28;20513;-87
2021/04/15 06:08:34;;;;;;;12.00;7.32;;;1.30;99.90;;;;;;4993225;28;20054;-87
2021/04/15 06:11:35;;;;;;;11.63;7.80;;;1.40;99.90;;;;;;4994224;28;20050;-87
2021/04/15 06:14:09;;;;;;;16.50;9.93;;;1.60;99.90;;;;;;4993152;28;20248;-89
2021/04/15 06:16:43;;;;;;;17.88;11.90;;;2.00;99.90;;;;;;4993182;28;20407;-88
2021/04/15 06:19:20;;;;;;;5.47;4.10;;;2.20;99.90;;;;;;4993805;28;20054;-88
2021/04/15 06:22:04;;;;;;;7.65;5.50;;;2.30;99.90;;;;;;4993479;28;20073;-88
2021/04/15 06:24:30;;;;;;;10.10;4.70;;;2.20;99.90;;;;;;4993210;28;20050;-88
2021/04/15 06:27:03;;;;;;;8.30;3.78;;;2.40;99.90;;;;;;4993252;28;20085;-88
2021/04/15 06:29:46;;;;;;;10.40;4.73;;;2.60;99.90;;;;;;4997289;28;20054;-88
2021/04/15 06:32:24;;;;;;;11.35;4.57;;;2.80;99.90;;;;;;4997958;28;20053;-88
2021/04/15 06:34:50;;;;;;;18.38;5.38;;;3.20;99.90;;;;;;4998362;28;20069;-87
2021/04/15 06:37:22;;;;;;;23.75;8.30;;;3.60;99.90;;;;;;4997074;28;20084;-88
2021/04/15 06:39:55;;;;;;;23.30;9.70;;;3.50;99.90;;;;;;4996685;28;20058;-88
2021/04/15 06:42:48;;;;;;;24.00;11.63;;;3.60;99.90;;;;;;4997626;28;20125;-88
2021/04/15 06:45:43;;;;;;;23.63;7.87;;;3.90;99.90;;;;;;4996789;28;20125;-88
2021/04/15 06:48:16;;;;;;;14.73;6.47;;;3.60;99.90;;;;;;4996616;28;20112;-87
2021/04/15 06:51:16;;;;;;;24.15;7.80;;;4.30;99.90;;;;;;4996380;28;20081;-87
2021/04/15 06:53:56;;;;;;;23.92;7.03;;;4.80;99.90;;;;;;4997559;28;20078;-87
2021/04/15 06:56:32;;;;;;;23.58;7.22;;;5.20;99.90;;;;;;4996166;28;20455;-86
2021/04/15 06:59:05;;;;;;;68.28;23.63;;;5.90;99.90;;;;;;4996857;28;20498;-86
2021/04/15 07:02:03;;;;;;;22.60;6.65;;;6.90;99.90;;;;;;4995562;28;20078;-86
2021/04/15 07:04:53;;;;;;;16.05;5.65;;;6.90;99.90;;;;;;4996758;28;20050;-86
2021/04/15 07:07:26;;;;;;;17.45;6.43;;;6.90;99.90;;;;;;5015563;28;20053;-85
2021/04/15 07:10:13;;;;;;;16.63;5.73;;;7.30;99.90;;;;;;5015144;28;20050;-85
2021/04/15 07:13:11;;;;;;;16.67;6.03;;;7.70;99.90;;;;;;5014853;28;20455;-85
2021/04/15 07:15:43;;;;;;;12.07;6.45;;;8.00;99.90;;;;;;5014709;28;20172;-85
2021/04/15 07:18:58;;;;;;;12.48;7.07;;;7.50;99.90;;;;;;5015953;28;20104;-84
2021/04/15 07:21:50;;;;;;;8.93;6.90;;;7.40;99.90;;;;;;5014742;28;20056;-84
2021/04/15 07:24:30;;;;;;;7.32;6.63;;;7.30;99.90;;;;;;5014562;28;20060;-84
2021/04/15 07:27:22;;;;;;;9.98;7.22;;;7.30;99.90;;;;;;5014605;28;20049;-85
2021/04/15 07:30:20;;;;;;;16.30;7.07;;;7.30;99.90;;;;;;5015984;28;20510;-85
2021/04/15 07:33:16;;;;;;;10.40;6.90;;;8.30;99.90;;;;;;5015773;28;20077;-85
2021/04/15 07:35:55;;;;;;;9.38;6.50;;;9.60;99.90;;;;;;5015400;28;20060;-85
2021/04/15 07:38:40;;;;;;;9.50;6.13;;;9.90;99.90;;;;;;5015317;28;20052;-84
2021/04/15 07:41:17;;;;;;;12.82;9.73;;;10.90;99.90;;;;;;5014747;28;20128;-85
2021/04/15 07:44:07;;;;;;;8.05;6.47;;;11.10;99.90;;;;;;5014570;28;20136;-85
2021/04/15 07:46:50;;;;;;;7.57;6.60;;;9.80;99.90;;;;;;5014016;28;20077;-84
2021/04/15 07:49:29;;;;;;;14.55;6.72;;;9.50;99.90;;;;;;5013923;28;20045;-85
2021/04/15 07:52:20;;;;;;;14.07;7.35;;;9.10;99.90;;;;;;5013899;28;20132;-85
2021/04/15 07:55:15;;;;;;;15.23;6.88;;;8.60;99.90;;;;;;5014257;28;20077;-85
2021/04/15 07:58:20;;;;;;;8.02;6.78;;;7.80;99.90;;;;;;5013539;28;20056;-84
2021/04/15 08:01:12;;;;;;;11.55;6.97;;;8.00;99.90;;;;;;5013480;28;20144;-85
2021/04/15 08:04:00;;;;;;;13.60;6.43;;;8.40;99.90;;;;;;5013762;28;20054;-85
2021/04/15 08:06:45;;;;;;;5.97;4.93;;;10.10;99.90;;;;;;5013666;28;20133;-85
2021/04/15 08:09:31;;;;;;;8.50;5.63;;;12.10;99.90;;;;;;5015338;28;20054;-85
2021/04/15 08:12:17;;;;;;;18.83;9.35;;;12.10;93.50;;;;;;5013676;28;20495;-85
2021/04/15 08:15:20;;;;;;;7.22;5.13;;;13.50;87.90;;;;;;5014778;28;20500;-85
2021/04/15 08:17:46;;;;;;;8.65;5.43;;;13.70;77.70;;;;;;5037206;28;20077;-85
2021/04/15 08:20:29;;;;;;;10.95;5.70;;;12.00;82.40;;;;;;5013615;28;20065;-84
2021/04/15 08:23:21;;;;;;;6.30;5.30;;;11.10;88.90;;;;;;5013720;28;20046;-85
2021/04/15 08:26:10;;;;;;;5.50;4.97;;;11.60;90.70;;;;;;5014616;28;20046;-85
2021/04/15 08:28:54;;;;;;;7.07;4.78;;;12.10;90.70;;;;;;5014439;28;20434;-85
2021/04/15 08:31:47;;;;;;;;;;;11.70;82.70;;;;;;5013805;28;20148;-85
2021/04/15 08:34:26;;;;;;;7.72;4.78;;;10.70;84.50;;;;;;5014705;28;19964;-84
2021/04/15 08:37:10;;;;;;;7.07;4.68;;;10.20;90.30;;;;;;5013306;28;20514;-84
2021/04/15 08:39:55;;;;;;;6.30;4.50;;;9.00;93.60;;;;;;5012784;28;20124;-84
2021/04/15 08:42:41;;;;;;;6.93;4.90;;;8.90;99.90;;;;;;5013870;28;20064;-84
2021/04/15 08:45:32;;;;;;;4.82;4.22;;;8.40;99.90;;;;;;5013723;28;20046;-84
2021/04/15 08:48:20;;;;;;;26.90;15.27;;;7.90;99.90;;;;;;5012979;28;20144;-84
2021/04/15 08:50:59;;;;;;;6.10;5.45;;;7.40;99.90;;;;;;5046153;28;20135;-85
2021/04/15 08:53:50;;;;;;;6.40;4.32;;;6.90;99.90;;;;;;5013852;28;20046;-84
2021/04/15 08:57:01;;;;;;;9.15;4.03;;;6.80;99.90;;;;;;5007532;28;20626;-84
2021/04/15 08:59:41;;;;;;;7.53;4.22;;;6.70;99.90;;;;;;4937173;29;20102;-84
2021/04/15 09:02:19;;;;;;;11.70;4.50;;;7.90;99.90;;;;;;4989324;28;20089;-84
2021/04/15 09:05:07;;;;;;;4.25;3.15;;;10.50;99.90;;;;;;4993231;28;20394;-85
2021/04/15 09:07:51;;;;;;;3.55;3.28;;;10.70;90.00;;;;;;5000685;28;20133;-85
2021/04/15 09:10:29;;;;;;;4.57;3.20;;;10.20;90.20;;;;;;5038096;28;20081;-84
2021/04/15 09:13:21;;;;;;;3.00;2.80;;;9.10;96.40;;;;;;5013808;28;20132;-84
2021/04/15 09:16:08;;;;;;;4.00;2.63;;;8.50;98.90;;;;;;4997361;28;20142;-84
2021/04/15 09:18:57;;;;;;;3.88;3.33;;;9.30;95.00;;;;;;4993897;28;20080;-84
2021/04/15 09:21:42;;;;;;;3.78;3.47;;;9.60;92.20;;;;;;4993047;28;20050;-84
2021/04/15 09:24:30;;;;;;;6.53;2.33;;;9.70;92.50;;;;;;4994093;28;20487;-84
2021/04/15 09:27:16;;;;;;;1.55;1.02;;;10.60;87.70;;;;;;4992763;28;20096;-85
2021/04/15 09:29:58;;;;;;;3.53;1.92;;;11.30;74.20;;;;;;4992903;28;20560;-85
2021/04/15 09:32:47;;;;;;;1.83;1.73;;;10.10;82.00;;;;;;4993757;28;20141;-84
2021/04/15 09:35:42;;;;;;;3.30;1.83;;;10.60;82.10;;;;;;4992839;28;20064;-84
2021/04/15 09:38:34;;;;;;;4.25;2.00;;;10.80;77.00;;;;;;4993673;28;20050;-84
2021/04/15 09:41:22;;;;;;;1.85;1.75;;;10.30;77.80;;;;;;4965828;28;20377;-84
2021/04/15 09:44:15;;;;;;;13.60;2.83;;;11.60;77.70;;;;;;4992653;28;20093;-84
2021/04/15 09:47:05;;;;;;;4.07;1.45;;;13.10;69.40;;;;;;4993829;28;20062;-84
2021/04/15 09:50:01;;;;;;;1.30;1.27;;;14.00;68.80;;;;;;4992552;28;20050;-85
2021/04/15 09:52:45;;;;;;;1.95;1.33;;;11.50;63.90;;;;;;4992308;28;20515;-84
2021/04/15 09:55:24;;;;;;;;;;;11.50;66.40;;;;;;4994161;28;20093;-84
2021/04/15 09:58:27;;;;;;;1.20;0.95;;;11.50;66.80;;;;;;4992673;28;20013;-84
2021/04/15 10:00:59;;;;;;;3.58;1.20;;;11.30;68.80;;;;;;4992056;28;20137;-84
2021/04/15 10:04:02;;;;;;;4.90;1.83;;;10.80;69.30;;;;;;4995233;28;20125;-84
2021/04/15 10:06:37;;;;;;;1.50;1.40;;;10.00;69.50;;;;;;4999509;28;20054;-84
2021/04/15 10:09:10;;;;;;;1.85;1.48;;;9.30;73.50;;;;;;4998673;28;20130;-84
2021/04/15 10:11:39;;;;;;;3.17;1.27;;;8.40;74.90;;;;;;4998744;28;20415;-83
2021/04/15 10:14:23;;;;;;;2.20;1.00;;;8.60;75.40;;;;;;4998908;28;20054;-84
2021/04/15 10:17:12;;;;;;;4.43;1.52;;;8.70;74.50;;;;;;4998653;28;20054;-84
2021/04/15 10:20:03;;;;;;;1.45;1.00;;;9.10;75.00;;;;;;4998636;28;20058;-84
2021/04/15 10:22:37;;;;;;;3.33;1.30;;;9.50;73.60;;;;;;4998323;28;20136;-84
2021/04/15 10:25:19;;;;;;;1.80;0.90;;;9.50;72.30;;;;;;4998367;28;20050;-83
2021/04/15 10:28:08;;;;;;;2.67;1.05;;;10.10;70.20;;;;;;4998596;28;20137;-84
2021/04/15 10:31:01;;;;;;;1.33;1.05;;;11.60;69.60;;;;;;4999683;28;20153;-84
2021/04/15 10:34:17;;;;;;;1.98;0.90;;;12.70;65.20;;;;;;4999391;28;20486;-85
2021/04/15 10:36:55;;;;;;;0.90;0.82;;;13.30;57.50;;;;;;4998487;28;20077;-85
2021/04/15 10:39:58;;;;;;;7.18;1.10;;;15.00;56.50;;;;;;4998261;28;20082;-85
2021/04/15 10:43:03;;;;;;;3.80;0.90;;;15.40;54.60;;;;;;4997958;28;20085;-83
2021/04/15 10:46:13;;;;;;;2.95;1.02;;;14.40;51.90;;;;;;4998386;28;20466;-84
2021/04/15 10:48:48;;;;;;;3.50;1.25;;;12.70;56.30;;;;;;4998152;28;20097;-83
2021/04/15 10:51:23;;;;;;;4.18;1.20;;;11.40;59.00;;;;;;4999155;28;20108;-83
2021/04/15 10:53:54;;;;;;;4.53;1.33;;;10.70;60.40;;;;;;4999533;28;20082;-84
2021/04/15 10:56:25;;;;;;;4.22;1.40;;;10.10;62.90;;;;;;4999073;28;20074;-83
2021/04/15 10:58:52;;;;;;;2.92;1.00;;;9.10;66.10;;;;;;4997788;28;20089;-83
2021/04/15 11:01:21;;;;;;;1.00;1.00;;;8.60;67.30;;;;;;4998177;28;20531;-83
2021/04/15 11:03:48;;;;;;;4.55;1.00;;;8.20;70.20;;;;;;4999353;28;20054;-83
2021/04/15 11:06:42;;;;;;;1.45;1.00;;;8.20;72.80;;;;;;4998820;28;20134;-83
2021/04/15 11:09:31;;;;;;;8.23;1.58;;;8.70;70.10;;;;;;4998920;28;20093;-84
2021/04/15 11:12:14;;;;;;;1.67;0.90;;;8.60;68.80;;;;;;5003507;28;20472;-83
2021/04/15 11:14:47;;;;;;;1.17;1.00;;;9.20;67.00;;;;;;5042777;28;20062;-83
2021/04/15 11:17:33;;;;;;;3.22;1.13;;;9.30;66.50;;;;;;5014222;28;20046;-84
2021/04/15 11:20:24;;;;;;;1.17;1.08;;;9.20;66.80;;;;;;5014305;28;20132;-84
2021/04/15 11:23:26;;;;;;;1.20;0.88;;;9.40;69.30;;;;;;5015513;28;20160;-83
2021/04/15 11:26:08;;;;;;;1.75;1.20;;;10.00;68.40;;;;;;5015410;28;20054;-83
2021/04/15 11:28:35;;;;;;;1.63;1.00;;;10.60;66.70;;;;;;5015175;28;20061;-83
2021/04/15 11:31:10;;;;;;;5.38;1.35;;;10.60;68.20;;;;;;5015744;28;20045;-83
2021/04/15 11:33:40;;;;;;;2.92;1.23;;;10.30;66.70;;;;;;5014442;28;20128;-84
2021/04/15 11:36:24;;;;;;;6.45;1.83;;;9.70;65.40;;;;;;5015319;28;20491;-83
2021/04/15 11:39:09;;;;;;;1.25;0.82;;;8.80;66.10;;;;;;5013958;28;20141;-86
2021/04/15 11:41:57;;;;;;;6.90;1.35;;;8.20;69.30;;;;;;5015106;28;20080;-84
2021/04/15 11:44:43;;;;;;;2.25;0.90;;;8.10;70.00;;;;;;5014964;28;20132;-83
2021/04/15 11:47:25;;;;;;;6.00;1.58;;;8.60;70.80;;;;;;5013920;28;20060;-83
2021/04/15 11:49:53;;;;;;;4.38;1.17;;;9.10;68.90;;;;;;5014236;28;20042;-84
2021/04/15 11:52:19;;;;;;;1.80;0.93;;;9.60;67.70;;;;;;5014902;28;20136;-83
2021/04/15 11:55:05;;;;;;;2.13;0.77;;;10.00;64.70;;;;;;5015179;28;20050;-83
2021/04/15 11:57:55;;;;;;;1.98;1.10;;;9.30;65.50;;;;;;5013794;28;20053;-83
2021/04/15 12:00:34;;;;;;;14.13;1.88;;;9.50;68.60;;;;;;5013303;28;20490;-83
2021/04/15 12:03:01;;;;;;;2.13;0.70;;;9.50;69.60;;;;;;5013529;28;20050;-83
2021/04/15 12:05:32;;;;;;;4.15;0.60;;;9.20;68.40;;;;;;5004885;28;20077;-83
2021/04/15 12:08:13;;;;;;;3.90;0.68;;;9.60;66.10;;;;;;4993875;28;20129;-83
2021/04/15 12:10:43;;;;;;;5.03;1.10;;;9.90;66.50;;;;;;4995149;28;20372;-84
2021/04/15 12:13:23;;;;;;;3.85;0.80;;;9.60;66.20;;;;;;4993895;28;20054;-83
2021/04/15 12:16:08;;;;;;;2.65;0.80;;;9.00;64.60;;;;;;4994903;28;20125;-83
2021/04/15 12:18:43;;;;;;;3.63;1.08;;;9.00;67.20;;;;;;4994789;28;20134;-83
2021/04/15 12:21:18;;;;;;;2.92;0.98;;;9.00;64.80;;;;;;4994946;28;20050;-83
2021/04/15 12:24:16;;;;;;;2.90;1.08;;;8.50;65.20;;;;;;4993644;28;20483;-83
2021/04/15 12:26:57;;;;;;;5.15;1.33;;;8.80;67.50;;;;;;4993028;28;20562;-84
2021/04/15 12:29:36;;;;;;;15.30;1.40;;;8.80;65.30;;;;;;4993772;28;20078;-83
2021/04/15 12:32:42;;;;;;;3.03;0.70;;;9.10;65.00;;;;;;4995138;28;20162;-84
2021/04/15 12:35:22;;;;;;;6.93;5.80;;;9.10;64.40;;;;;;4992447;28;20058;-84
2021/04/15 12:37:58;;;;;;;3.58;1.10;;;9.10;64.10;;;;;;4994513;28;20184;-84
2021/04/15 12:40:34;;;;;;;1.30;0.90;;;8.80;63.80;;;;;;4994417;28;20094;-84
2021/04/15 12:43:06;;;;;;;1.95;0.77;;;8.60;64.00;;;;;;4993426;28;20483;-83
2021/04/15 12:45:38;;;;;;;4.90;1.00;;;8.30;66.30;;;;;;4994606;28;20120;-84
2021/04/15 12:48:07;;;;;;;1.63;1.52;;;8.20;66.40;;;;;;4993268;28;20145;-85
2021/04/15 12:50:34;;;;;;;6.00;1.38;;;8.10;68.80;;;;;;4993179;28;20072;-83
2021/04/15 12:53:05;;;;;;;12.82;1.98;;;8.20;69.00;;;;;;4992919;28;20120;-83
2021/04/15 12:55:31;;;;;;;2.45;1.23;;;8.60;69.40;;;;;;4992913;28;20128;-82
2021/04/15 12:58:00;;;;;;;162.45;100.38;;;8.90;69.90;;;;;;4993940;28;20137;-83
2021/04/15 13:00:34;;;;;;;138.10;78.82;;;9.10;68.00;;;;;;4993816;28;20066;-84
2021/04/15 13:03:09;;;;;;;1.27;1.17;;;9.20;67.50;;;;;;4992921;28;20042;-83
2021/04/15 13:05:35;;;;;;;169.02;89.72;;;9.10;66.20;;;;;;4993882;28;20078;-83
2021/04/15 13:08:33;;;;;;;124.78;82.40;;;8.90;68.00;;;;;;4992928;28;20406;-84
2021/04/15 13:11:15;;;;;;;49.28;44.20;;;8.60;69.70;;;;;;4993286;28;20054;-83
2021/04/15 13:13:42;;;;;;;8.23;5.38;;;8.10;70.90;;;;;;4994280;28;20078;-84
2021/04/15 13:16:33;;;;;;;7.40;6.70;;;7.60;76.40;;;;;;4993976;28;20133;-83
2021/04/15 13:19:18;;;;;;;10.30;9.32;;;7.40;76.40;;;;;;4994090;28;20046;-84
2021/04/15 13:22:01;;;;;;;2.85;1.67;;;7.60;75.90;;;;;;4994223;28;20535;-84
2021/04/15 13:24:46;;;;;;;5.18;1.85;;;8.00;74.40;;;;;;4992701;28;20466;-84
2021/04/15 13:27:34;;;;;;;7.40;1.52;;;8.40;73.40;;;;;;4993919;28;20061;-84
2021/04/15 13:30:19;;;;;;;2.25;1.48;;;8.50;72.10;;;;;;4993098;28;20054;-84
2021/04/15 13:32:56;;;;;;;0.80;0.80;;;8.10;72.30;;;;;;4993772;28;20057;-84
2021/04/15 13:35:39;;;;;;;1.08;0.75;;;8.00;69.70;;;;;;4993902;28;20147;-83
2021/04/15 13:38:46;;;;;;;2.38;1.10;;;7.90;71.30;;;;;;4991930;28;20570;-84
2021/04/15 13:41:22;;;;;;;4.15;1.55;;;7.90;72.80;;;;;;4992427;28;20054;-83
2021/04/15 13:43:50;;;;;;;4.78;1.30;;;8.20;76.10;;;;;;4993771;28;20146;-84
2021/04/15 13:46:25;;;;;;;1.02;0.70;;;8.50;75.80;;;;;;4992326;28;20137;-84
2021/04/15 13:49:08;;;;;;;1.42;0.80;;;8.60;75.90;;;;;;4992630;28;20060;-83
2021/04/15 13:52:03;;;;;;;3.05;1.08;;;8.60;74.70;;;;;;4993285;28;20136;-83